TimePDT,TemperatureF,Dew PointF,Humidity,Sea Level PressureIn,VisibilityMPH,Wind Direction,Wind SpeedMPH,Gust SpeedMPH,PrecipitationIn,Events,Conditions,WindDirDegrees,DateUTC
12:53 AM,93.0,51.1,24,29.71,10.0,Calm,Calm,-,N/A,,Clear,0,2013-06-29 07:53:00
1:53 AM,90.0,54.0,29,29.70,10.0,South,3.5,-,N/A,,Clear,190,2013-06-29 08:53:00
2:53 AM,90.0,55.0,30,29.70,10.0,Calm,Calm,-,N/A,,Clear,0,2013-06-29 09:53:00
3:53 AM,87.1,54.0,32,29.68,10.0,Calm,Calm,-,N/A,,Clear,0,2013-06-29 10:53:00
4:53 AM,86.0,55.9,36,29.68,10.0,Calm,Calm,-,N/A,,Clear,0,2013-06-29 11:53:00
5:53 AM,88.0,54.0,31,29.69,10.0,Variable,3.5,-,N/A,,Clear,0,2013-06-29 12:53:00
6:53 AM,84.9,55.9,37,29.70,10.0,Calm,Calm,-,N/A,,Scattered Clouds,0,2013-06-29 13:53:00
7:53 AM,91.9,53.1,27,29.70,10.0,Calm,Calm,-,N/A,,Scattered Clouds,0,2013-06-29 14:53:00
8:53 AM,96.1,52.0,22,29.70,10.0,South,4.6,-,N/A,,Scattered Clouds,170,2013-06-29 15:53:00
9:53 AM,102.9,48.9,16,29.70,10.0,NW,3.5,-,N/A,,Scattered Clouds,320,2013-06-29 16:53:00
10:53 AM,109.0,37.9,9,29.69,10.0,Calm,Calm,-,N/A,,Scattered Clouds,0,2013-06-29 17:53:00
11:53 AM,115.0,37.0,7,29.68,10.0,Calm,Calm,-,N/A,,Scattered Clouds,0,2013-06-29 18:53:00
12:53 PM,118.9,33.1,6,29.65,10.0,North,6.9,-,N/A,,Scattered Clouds,360,2013-06-29 19:53:00
1:53 PM,118.9,32.0,5,29.64,10.0,Variable,5.8,-,N/A,,Scattered Clouds,0,2013-06-29 20:53:00
2:53 PM,118.9,33.1,6,29.62,10.0,Variable,4.6,-,N/A,,Clear,0,2013-06-29 21:53:00
3:53 PM,120.0,36.0,6,29.60,10.0,NW,16.1,20.7,N/A,,Clear,320,2013-06-29 22:53:00
4:53 PM,120.0,37.0,6,29.58,10.0,NW,13.8,24.2,N/A,,Clear,310,2013-06-29 23:53:00
5:53 PM,118.0,37.9,7,29.57,10.0,NW,8.1,21.9,N/A,,Clear,310,2013-06-30 00:53:00
6:53 PM,114.1,41.0,9,29.58,10.0,SE,10.4,-,N/A,,Clear,130,2013-06-30 01:53:00
7:53 PM,111.0,46.0,11,29.60,10.0,ESE,16.1,-,N/A,,Clear,120,2013-06-30 02:53:00
8:53 PM,102.0,61.0,26,29.64,10.0,SE,5.8,-,N/A,,Clear,130,2013-06-30 03:53:00
9:53 PM,100.0,61.0,28,29.67,10.0,NNE,4.6,-,N/A,,Clear,30,2013-06-30 04:53:00
10:53 PM,98.1,62.1,30,29.70,10.0,North,5.8,-,N/A,,Clear,350,2013-06-30 05:53:00
11:53 PM,97.0,60.1,29,29.70,10.0,NNE,3.5,-,N/A,,Clear,20,2013-06-30 06:53:00